AREA preflight bulletin
Updated "live" 20 Oct 2018, 23:44

back to the map




METAR og TAF


NUUK
  AKTUEL BGGH 202250Z AUTO 06013KT 9999NDV FEW200/// M08/M14 Q1009=
  TAF 9 timer BGGH 201859Z 2019/2020 CNL=

KANGERLUSSUAQ
  AKTUEL BGSF 202320Z AUTO 07007KT 9999NDV BKN024/// BKN060/// M10/M13 Q1010=
  TAF 24 timer BGSF 202300Z 2100/2119 07008KT 9999 BKN060 TEMPO 2100/2103 6000 -SN BKN020 TEMPO 2103/2111 BKN035 BECMG 2111/2113 FEW060=

KULUSUK
  AKTUEL BGKK 202320Z AUTO 32007KT 9999NDV -RASN BKN007/// OVC014/// M00/M02 Q0987=
  TAF 9 timer BGKK 201859Z 2019/2020 CNL=

NERLERIT INAAT
  AKTUEL BGCO 202250Z AUTO 32004KT 290V360 //// NCD M09/M12 Q0984=

KEFLAVIK
  AKTUEL BIKF 202330Z 23037G47KT 9999 VCSH FEW020CB BKN043 05/02 Q0988=
  TAF 24 timer BIKF 202302Z 2100/2124 24040G55KT 9000 SHRA SCT015CB BKN025 TX06/2116Z TN03/2122Z BECMG 2103/2106 24030G43KT BECMG 2106/2109 25023G33KT BECMG 2109/2112 25020KT=

REYKJAVIK
  AKTUEL BIRK 202300Z 22032G42KT 9999 FEW019CB BKN026 05/01 Q0988 RESHRA=
  TAF 24 timer BIRK 202302Z 2100/2124 23035G50KT 9999 SHRA FEW015CB BKN025 TX06/2116Z TN03/2122Z BECMG 2103/2106 23028G40KT BECMG 2106/2109 24020G30KT BECMG 2109/2112 24017KT=

AKUREYRI
  AKTUEL BIAR 202300Z 22029G41KT 9999 DZ FEW030 BKN049 07/M00 Q0980=
  TAF 24 timer BIAR 202302Z 2100/2124 22030G45KT 9999 -RA FEW025 BKN040 TX06/2100Z TN01/2120Z TEMPO 2100/2109 24040G55KT BECMG 2110/2113 33017KT PROB40 TEMPO 2111/2115 5000 RASN BKN015 OVC025 BECMG 2116/2119 21013KT BECMG 2121/2124 21018G28KT=


SIGMETS:

SONDRESTROM FIR
  SIGMET BGGL SIGMET 11 VALID 202215/210215 BGSF- BGGL NUUK FIR SEV TURB FCST AT 2215Z WI N5936 W04307 - N5952 W04509 - N6559 W04203 - N6531 W03847 - N5936 W04307 SFC/FL090 STNR NC=

SNOWTAM:

ICAO
BGSF (KANGERLUSSUAQ)

valid from:
1810201845

Notam_id:
0030

SNOWTAM 0030 A)BGSF B)10201845 C)09 F)4/4/4 H)5/5/5 N)A B C D/4/GOOD R)N E W HELIPAD/4/GOOD T)MEASURED FRICTION COEFFICIENTS 60/65/70 TAP, RUNWAY CONTAMINATION 100 PERCENT 1MM DRY SNOW


ICAO
BGKK (KULUSUK)

valid from:
1810201425

Notam_id:
0026

SNOWTAM 0026 A)BGKK B)10201425 C)11 F)56/56/56 G)7/7/7 H)5/5/5 N)56/GOOD R)56/GOOD T)RUNWAY 11 CONTAMINATION 50 PERCENT 2MM WET SNOW AND 25 PERCENT UP TILL 5MM SLUSH.-MEASURED FRICTION COIFFICIENTS 65/65/65 TAP.



NOTAM/SNOWTAM for operationel use has to be confirmed with the
nearest AIS Briefing Office prior to a flight.

ICAO
BGGH (NUUK)

FIR
BGGL

Notam_id:
BGB0786/18

valid from:
1810011932

E) BGGH AFIS FREQ 119.100 MHZ NO COVERAGE IN SECTOR BETWEEN 060 DEG MAG AND 210 DEG MAG BELOW FL100.

valid to:
1901311900EST


Replacing:
BGB0781/18

ICAO
BGGH (NUUK)

FIR
BGGL

Notam_id:
BGB0930/17

valid from:
1712181907

E) ERROR IN CHART FOR RNAV (GNSS) APPROACH RWY 23. WITH REF AIP GREENLAND AD 2-BGGH RNAV (GNSS) RWY 23-1. NEW OCA(H) LNAV/VNAV CLIMB 2.5 PERCENT CAT A TO READ 1310 (1029) INSTEAD OF 1230. NEW OCA(H) LNAV/VNAV CLIMB 2.5 PERCENT CAT B TO READ 1340 (1059) INSTEAD OF 1250. NEW OCA(H) LNAV/VNAV CLIMB 5.0 PERCENT CAT A TO READ 1300 (1019) INSTEAD OF 1070. NEW OCA(H) LNAV/VNAV CLIMB 5.0 PERCENT CAT B TO READ 1320 (1039) INSTEAD OF 1110. NEW OCA(H) LNAV CLIMB 5.0 PERCENT CAT A TO READ 1150 (869) IN-STEAD OF 1130. NEW OCA(H) LNAV CLIMB 5.0 PERCENT CAT B TO READ 1240 (959) INSTEAD OF 1230.

valid to:
PERM




ICAO
BGGH (NUUK)

FIR
BGGL

Notam_id:
BGB0808/18

valid from:
1810111130

E) CRANE RAISED AT PSN 641124N0514021W (AIR GREENLAND HANGAR AREA) TOP 82FT AGL

valid to:
1812201900EST




ICAO
BGSF (KANGERLUSSUAQ)

FIR
BGGL

Notam_id:
BGA0541/18

valid from:
1810191025

E) APPROACH LIGHTS, PAPI LIGHTS AND RUNWAY EDGE LIGHTS ARE SET ON 10 PCT INTENSITY. 20 MINUTES PRIOR NOTICE REQUIRED TO CHANGE SETTING.

valid to:
1810312359




ICAO
BGSF (KANGERLUSSUAQ)

FIR
BGGL

Notam_id:
BGA0445/18

valid from:
1809131554

E) BGSF FBO E-MAIL ADDRESS: BGSF(AT)MIT.GL REF AIP GRL/AD 2 - BGSF, GEN 3.3 - 2 AND GEN 3.4 - 3.

valid to:
PERM




ICAO
BGKK (KULUSUK)

FIR
BGGL

Notam_id:
BGB0740/17

valid from:
1709221803

E) PAPI RWY 11 ANGLE CHANGED TO 3.40 DEG.

valid to:
PERM




ICAO
BGCO (NERLERIT INAAT)

FIR
BGGL

Notam_id:
BGB0806/18

valid from:
1810100954

E) SEA RESCUE NOT AVAILABLE.

valid to:
1908151600


Replacing:
BGB0659/18

ICAO
BGGL (SONDRESTROM FIR)

FIR
BGGL

Notam_id:
BGA0473/18

valid from:
1810010452

E) CHECKLIST YEAR=2017 0269 YEAR=2018 0199 0383 0442 0443 0444 0445 0451 0468 0469 0470 0471 0472 LATEST PUBLICATIONS AIP AIRAC AMDT IFR 009/2018 EFFECTIVE DATE 11 OCT 18 AIP AMDT IFR 003/2018 EFFECTIVE DATE 15 MAR 18 AIP SUP IFR 006/2018 EFFECTIVE DATE 18 JUN 18 AIC IFR A003/2018 EFFECTIVE DATE 29 AUG 18

valid to:
1811010452EST


Replacing:
BGA0405/18

ICAO
BGGL (SONDRESTROM FIR)

FIR
BGGL

Notam_id:
BGB0782/18

valid from:
1810010453

E) CHECKLIST YEAR=2017 0740 0930 YEAR=2018 0605 0618 0622 0631 0659 0696 0697 0698 0699 0704 0728 0750 0759 0760 0772 0773 0776 0777 0781 LATEST PUBLICATIONS AIP AIRAC AMDT IFR 009/2018 EFFECTIVE DATE 11 OCT 18 AIP AMDT IFR 003/2018 EFFECTIVE DATE 15 MAR 18 AIP SUP IFR 006/2018 EFFECTIVE DATE 18 JUN 18 AIC IFR A003/2018 EFFECTIVE DATE 29 AUG 18

valid to:
1811010453EST


Replacing:
BGB0731/18

ICAO
BGGL (SONDRESTROM FIR)

FIR
BGGL

Notam_id:
BGC0063/18

valid from:
1810010453

E) CHECKLIST YEAR=2018 0058 0059 0060 LATEST PUBLICATIONS AIP AIRAC AMDT IFR 009/2018 EFFECTIVE DATE 11 OCT 18 AIP AMDT IFR 003/2018 EFFECTIVE DATE 15 MAR 18 AIP SUP IFR 006/2018 EFFECTIVE DATE 18 JUN 18 AIC IFR A003/2018 EFFECTIVE DATE 29 AUG 18

valid to:
1811010453EST


Replacing:
BGC0062/18

ICAO
BGGL (SONDRESTROM FIR)

FIR
BGGL

Notam_id:
BGA0486/18

valid from:
1811080000

E) AIP AIRAC AMDT EFFECTIVE DATE 08 NOV 2018: NIL.

valid to:
1811212359




ICAO
BGGL (SONDRESTROM FIR)

FIR
BGGL

Notam_id:
BGA0199/18

valid from:
1805310935

E) GREENLAND AND ADJACENT WATERS ARE CONSIDERED HOSTILE AREAS BY THE CIVIL AVIATION AUTHORITY (TBST). THREE MAJOR REASONS CONTRIBUTE TO DEFINING THE AREA AS HOSTILE: A SAFE FORCED LANDING CANNOT BE ACCOMPLISHED BECAUSE THE SURFACE IS INADEQUATE. THE HELICOPTER OCCUPANTS CANNOT BE ADEQUATELY PROTECTED FROM THE ELEMENTS. SEARCH AND RESCUE RESPONSE/CAPABILITY ARE NOT PROVIDED CONSISTENT WITH ANTICIPATED EXPOSURE.

valid to:
PERM




ICAO
BIKF (KEFLAVIK)

FIR
BIRD

Notam_id:
BIA0364/18

valid from:
1810101033

E) NEW TWY TO HIGH POWER RUNUP AREA HAS NOT BEEN TAKEN INTO SERVICE REF: AIP ICELAND BIKF AD 2.24.1.2-1

valid to:
1901101033


Replacing:
BIA0175/18

ICAO
BIKF (KEFLAVIK)

FIR
BIRD

Notam_id:
BIA0349/18

valid from:
1809251104

D) DAILY: 1800-0400


E) REF: AIP ICELAND BIKF AD 2.24.1.2-1. DUE TO CONSTRUCTION WORK, STANDS 2, 4, 6, 8 ARE CLOSED AND TAXI LANE N14 WEST OF STAND 78

valid to:
1810280400


Replacing:
BIA0291/18

ICAO
BIKF (KEFLAVIK)

FIR
BIRD

Notam_id:
BIA0368/18

valid from:
1810171300

E) SUP 003/18 IS NOT ACTIVE REF: BIKF AD 2.24.2.1-1

valid to:
1901032359




ICAO
BIKF (KEFLAVIK)

FIR
BIRD

Notam_id:
BIA0346/18

valid from:
1809220000

E) AIRCRAFT STANDS 101 THROUGH 111 ARE IN SERVICE AS PER SUP 008/17 REF: SUP 008/17, BIKF AD 2.24.2.1-1

valid to:
1901032359




ICAO
BIKF (KEFLAVIK)

FIR
BIRD

Notam_id:
BIA0364/18

valid from:
1810101033

E) NEW TWY TO HIGH POWER RUNUP AREA HAS NOT BEEN TAKEN INTO SERVICE REF: AIP ICELAND BIKF AD 2.24.1.2-1) DUPE

valid to:
1901101033


Replacing:
BIA0175/18

ICAO
BIKF (KEFLAVIK)

FIR
BIRD

Notam_id:
BIA0241/18

valid from:
1808220930

E) BIR3 LIMITATIONS: WHEN RWY 28 AT BIKF AND/OR RWY 01 AT BIRK IS ACTIVE, TRAINING AREA IS CLOSED. REF ENR 5.1 F) SFC G) 3000 FT

valid to:
1811220930


Replacing:
BIA0127/18

ICAO
BIRK (REYKJAVIK)

FIR
BIRD

Notam_id:
BIA0360/18

valid from:
1810011255

E) TAKE OFF IS NOT PERMITTED WHEN RVR IS LESS THAN 800 M

valid to:
1901011255


Replacing:
BIA0358/18

ICAO
BIAR (AKUREYRI)

FIR
BIRD

Notam_id:
BIA0263/18

valid from:
1808241400

E) REF: AIP ICELAND BIAR AD 2.24.7.1-3. AKUREYRI SID RWY-19 BOTN 1A. INITIAL MINIMUM CLIMB GRAD. INCREASED TO 5.7 PERCENT UNTIL 4.4 DME IEY. CROSS 2.5 DME ABOVE 820 FT.

valid to:
1811241400





Copyright Naviair   2003-2016